Time;durP1;ratioP1;P1;durP2;ratioP2;P2;SDS_P1;SDS_P2;PMS_P1;PMS_P2;Temp;Humidity;BMP_temperature;BMP_pressure;BME280_temperature;BME280_humidity;BME280_pressure;Samples;Min_cycle;Max_cycle;Signal;HPM_P1;HPM_P2
2023/05/19 00:02:14;;;;;;;58.97;50.45;;;14.30;82.50;;;;;;4950198;28;90533;-58
2023/05/19 00:04:40;;;;;;;57.90;50.30;;;14.20;82.90;;;;;;4961170;28;90749;-59
2023/05/19 00:07:10;;;;;;;59.08;50.63;;;14.20;83.00;;;;;;4957255;28;90835;-52
2023/05/19 00:09:36;;;;;;;58.95;51.17;;;14.20;83.00;;;;;;4958629;28;90495;-52
2023/05/19 00:12:02;;;;;;;57.53;50.83;;;14.20;83.10;;;;;;4960317;28;89376;-60
2023/05/19 00:14:28;;;;;;;57.35;50.67;;;14.20;83.20;;;;;;4956443;28;89564;-57
2023/05/19 00:16:54;;;;;;;58.38;51.08;;;14.20;83.20;;;;;;4973941;28;89528;-60
2023/05/19 00:19:20;;;;;;;58.47;50.55;;;14.10;83.10;;;;;;4957070;28;89056;-56
2023/05/19 00:21:46;;;;;;;59.25;51.53;;;14.10;83.50;;;;;;4960015;28;90488;-59
2023/05/19 00:24:12;;;;;;;59.83;50.88;;;14.10;83.40;;;;;;4967796;28;91944;-55
2023/05/19 00:26:38;;;;;;;59.03;50.85;;;14.00;83.70;;;;;;4965511;28;92220;-51
2023/05/19 00:29:03;;;;;;;59.45;51.13;;;14.10;83.70;;;;;;4960944;28;89883;-54
2023/05/19 00:31:30;;;;;;;59.30;50.60;;;14.00;83.40;;;;;;4952828;28;90375;-54
2023/05/19 00:33:56;;;;;;;56.33;49.55;;;14.00;83.80;;;;;;4952501;28;90429;-54
2023/05/19 00:36:22;;;;;;;60.70;51.35;;;14.00;84.00;;;;;;4959152;28;90339;-59
2023/05/19 00:38:47;;;;;;;57.53;50.70;;;14.00;83.50;;;;;;4957228;28;90716;-58
2023/05/19 00:41:13;;;;;;;58.63;51.38;;;14.00;83.60;;;;;;4959218;28;90388;-54
2023/05/19 00:43:39;;;;;;;57.80;50.97;;;14.00;84.00;;;;;;4956777;28;89214;-56
2023/05/19 00:46:06;;;;;;;57.58;50.70;;;14.00;83.50;;;;;;4956092;28;89666;-55
2023/05/19 00:48:31;;;;;;;57.42;50.40;;;14.00;83.30;;;;;;4959987;28;90224;-55
2023/05/19 00:51:03;;;;;;;58.60;51.10;;;13.90;83.60;;;;;;4958523;28;91727;-59
2023/05/19 00:53:30;;;;;;;56.90;50.63;;;13.90;84.40;;;;;;4958341;28;89722;-47
2023/05/19 00:55:56;;;;;;;59.40;51.30;;;13.90;83.90;;;;;;4954938;28;89930;-56
2023/05/19 00:58:28;;;;;;;58.80;51.38;;;13.90;84.10;;;;;;4952820;28;90006;-57
2023/05/19 01:00:55;;;;;;;57.10;50.75;;;13.90;84.70;;;;;;4956521;28;90103;-59
2023/05/19 01:03:21;;;;;;;57.65;51.20;;;13.90;84.40;;;;;;4960621;28;90413;-59
2023/05/19 01:05:48;;;;;;;57.25;51.03;;;13.90;83.80;;;;;;4957583;28;90437;-55
2023/05/19 01:08:15;;;;;;;56.38;50.17;;;13.80;84.50;;;;;;4958151;28;95061;-59
2023/05/19 01:10:40;;;;;;;58.33;51.30;;;13.80;84.60;;;;;;4954431;28;91673;-57
2023/05/19 01:13:09;;;;;;;59.60;50.95;;;13.80;84.40;;;;;;4958435;28;91799;-60
2023/05/19 01:15:55;;;;;;;57.70;51.00;;;13.80;84.60;;;;;;4958385;28;90659;-58
2023/05/19 01:18:31;;;;;;;59.95;52.45;;;13.80;84.30;;;;;;4959346;28;90354;-46
2023/05/19 01:21:35;;;;;;;57.55;50.63;;;13.70;84.10;;;;;;4959270;28;89878;-45
2023/05/19 01:24:08;;;;;;;58.13;51.00;;;13.70;84.10;;;;;;4969178;28;90554;-46
2023/05/19 01:26:46;;;;;;;57.88;51.40;;;13.70;84.40;;;;;;4965957;28;89977;-47
2023/05/19 01:29:39;;;;;;;58.53;51.60;;;13.70;84.50;;;;;;4955951;28;89995;-47
2023/05/19 01:32:06;;;;;;;57.53;51.20;;;13.70;84.90;;;;;;4965007;28;89794;-45
2023/05/19 01:34:37;;;;;;;59.42;51.42;;;13.60;84.60;;;;;;4961715;28;88682;-46
2023/05/19 01:37:04;;;;;;;58.67;50.70;;;13.60;84.30;;;;;;4961438;28;89453;-47
2023/05/19 01:39:31;;;;;;;58.42;51.17;;;13.60;85.20;;;;;;4953087;28;89850;-46
2023/05/19 01:41:57;;;;;;;58.50;51.30;;;13.60;84.60;;;;;;4956202;28;92987;-49
2023/05/19 01:44:23;;;;;;;58.30;50.95;;;13.60;85.00;;;;;;4963551;28;89980;-45
2023/05/19 01:46:49;;;;;;;59.28;51.72;;;13.60;85.30;;;;;;4953427;28;90279;-47
2023/05/19 01:49:15;;;;;;;58.83;51.95;;;13.60;84.30;;;;;;4961356;28;90064;-46
2023/05/19 01:51:41;;;;;;;57.25;51.05;;;13.60;85.10;;;;;;4964513;28;90142;-46
2023/05/19 01:54:06;;;;;;;58.42;51.17;;;13.50;85.00;;;;;;4964294;28;90272;-46
2023/05/19 01:56:52;;;;;;;58.00;51.30;;;13.50;85.70;;;;;;4953513;28;91234;-45
2023/05/19 02:00:04;;;;;;;58.22;51.83;;;13.50;85.90;;;;;;4953506;28;89925;-46
2023/05/19 02:02:53;;;;;;;57.22;50.97;;;13.40;85.40;;;;;;4948299;28;90361;-44
2023/05/19 02:05:49;;;;;;;57.92;51.33;;;13.40;85.40;;;;;;4958662;28;89743;-47
2023/05/19 02:08:32;;;;;;;57.58;51.30;;;13.40;84.10;;;;;;4958846;28;91780;-45
2023/05/19 02:11:04;;;;;;;59.47;51.63;;;13.40;85.60;;;;;;4953338;28;90513;-48
2023/05/19 02:13:35;;;;;;;56.75;50.63;;;13.40;85.60;;;;;;4950030;28;90295;-49
2023/05/19 02:16:04;;;;;;;56.78;50.58;;;13.40;85.90;;;;;;4955592;28;91175;-48
2023/05/19 02:18:32;;;;;;;57.17;51.00;;;13.30;86.40;;;;;;4954296;28;90453;-45
2023/05/19 02:20:58;;;;;;;60.83;52.25;;;13.30;85.60;;;;;;4955903;28;90592;-49
2023/05/19 02:23:24;;;;;;;58.58;50.88;;;13.30;84.90;;;;;;4954818;28;90676;-46
2023/05/19 02:25:49;;;;;;;58.35;51.95;;;13.30;85.70;;;;;;4954732;28;89752;-45
2023/05/19 02:28:15;;;;;;;59.67;51.53;;;13.30;85.90;;;;;;4954294;28;90312;-59
2023/05/19 02:30:40;;;;;;;58.78;51.88;;;13.30;85.70;;;;;;4955063;28;89797;-57
2023/05/19 02:33:06;;;;;;;59.45;51.33;;;13.30;86.60;;;;;;4948796;28;91578;-59
2023/05/19 02:35:32;;;;;;;59.53;51.63;;;13.30;86.20;;;;;;4958856;28;90233;-59
2023/05/19 02:37:58;;;;;;;58.53;51.75;;;13.20;86.20;;;;;;4954969;28;96282;-55
2023/05/19 02:40:24;;;;;;;58.55;52.15;;;13.20;86.30;;;;;;4955436;28;90511;-59
2023/05/19 02:42:49;;;;;;;60.13;52.80;;;13.20;86.00;;;;;;4948734;28;90444;-55
2023/05/19 02:45:15;;;;;;;58.13;51.60;;;13.20;85.90;;;;;;4958338;28;89946;-59
2023/05/19 02:47:41;;;;;;;60.17;52.72;;;13.20;86.20;;;;;;4956649;28;89909;-58
2023/05/19 02:50:07;;;;;;;59.28;52.08;;;13.10;85.50;;;;;;4961293;28;88996;-59
2023/05/19 02:52:33;;;;;;;58.80;51.88;;;13.10;86.20;;;;;;4953432;28;89702;-60
2023/05/19 02:54:58;;;;;;;59.83;52.28;;;13.10;86.00;;;;;;4954842;28;90789;-59
2023/05/19 02:57:25;;;;;;;58.45;51.90;;;13.10;85.40;;;;;;4958104;28;92408;-58
2023/05/19 02:59:51;;;;;;;60.38;53.13;;;13.10;86.10;;;;;;4953207;28;91381;-56
2023/05/19 03:02:17;;;;;;;60.60;53.22;;;13.00;84.80;;;;;;4952918;28;91179;-59
2023/05/19 03:04:43;;;;;;;61.72;52.88;;;13.00;85.70;;;;;;4956080;28;90189;-56
2023/05/19 03:07:09;;;;;;;61.67;53.95;;;13.00;85.60;;;;;;4953945;28;93474;-59
2023/05/19 03:09:38;;;;;;;63.03;54.03;;;13.00;86.00;;;;;;4958219;28;90173;-55
2023/05/19 03:12:06;;;;;;;61.13;53.78;;;12.90;85.30;;;;;;4960021;28;89903;-56
2023/05/19 03:14:32;;;;;;;61.85;54.15;;;12.90;85.50;;;;;;4956492;28;89588;-58
2023/05/19 03:16:58;;;;;;;58.95;52.45;;;12.90;85.70;;;;;;4958861;28;89290;-59
2023/05/19 03:19:24;;;;;;;60.53;53.47;;;13.00;87.20;;;;;;4956587;28;89854;-57
2023/05/19 03:21:51;;;;;;;60.17;53.42;;;13.00;86.80;;;;;;4954346;28;92070;-58
2023/05/19 03:24:17;;;;;;;62.28;53.67;;;12.90;85.90;;;;;;4956122;28;94859;-60
2023/05/19 03:26:43;;;;;;;62.22;54.65;;;12.90;86.00;;;;;;4959466;28;89841;-56
2023/05/19 03:29:09;;;;;;;61.60;54.17;;;12.90;86.20;;;;;;4955410;28;93957;-60
2023/05/19 03:31:34;;;;;;;61.55;53.78;;;13.00;86.00;;;;;;4949538;28;91630;-60
2023/05/19 03:34:00;;;;;;;65.07;54.38;;;12.90;85.00;;;;;;4954916;28;89963;-57
2023/05/19 03:36:31;;;;;;;63.15;54.30;;;12.90;85.90;;;;;;4953350;28;94794;-60
2023/05/19 03:38:57;;;;;;;60.33;53.67;;;12.90;86.00;;;;;;4958225;28;90468;-56
2023/05/19 03:41:23;;;;;;;61.50;53.58;;;12.90;87.00;;;;;;4954548;28;90937;-55
2023/05/19 03:43:49;;;;;;;60.50;53.53;;;12.90;86.50;;;;;;4953186;28;90366;-59
2023/05/19 03:46:14;;;;;;;63.22;53.47;;;12.80;85.40;;;;;;4959633;28;91272;-60
2023/05/19 03:48:40;;;;;;;60.65;53.30;;;12.80;86.20;;;;;;4951032;28;90191;-57
2023/05/19 03:51:07;;;;;;;62.10;53.88;;;12.80;86.40;;;;;;4959815;28;89413;-56
2023/05/19 03:53:33;;;;;;;61.65;53.42;;;12.80;85.70;;;;;;4959413;28;89500;-57
2023/05/19 03:56:00;;;;;;;58.55;52.15;;;12.80;86.00;;;;;;4953534;28;90158;-56
2023/05/19 03:58:25;;;;;;;61.65;54.28;;;12.80;85.50;;;;;;4949640;28;94571;-55
2023/05/19 04:00:51;;;;;;;61.38;53.50;;;12.70;85.50;;;;;;4951566;28;89664;-57
2023/05/19 04:03:17;;;;;;;60.08;52.95;;;12.80;86.40;;;;;;4957603;28;89079;-57
2023/05/19 04:05:42;;;;;;;60.83;53.20;;;12.80;86.90;;;;;;4954286;28;90176;-57
2023/05/19 04:08:08;;;;;;;61.95;53.88;;;12.80;85.80;;;;;;4957420;28;91686;-57
2023/05/19 04:10:33;;;;;;;60.30;53.65;;;12.80;85.20;;;;;;4951582;28;91410;-60
2023/05/19 04:12:59;;;;;;;62.17;53.08;;;12.70;84.70;;;;;;4952149;28;92620;-60
2023/05/19 04:15:25;;;;;;;59.92;52.55;;;12.70;85.60;;;;;;4946670;28;90356;-55
2023/05/19 04:17:50;;;;;;;59.95;53.35;;;12.80;85.90;;;;;;4952650;28;91005;-57
2023/05/19 04:20:16;;;;;;;60.13;53.50;;;12.70;85.60;;;;;;4948285;28;91691;-53
2023/05/19 04:22:42;;;;;;;60.55;53.25;;;12.70;86.20;;;;;;4951637;28;89744;-54
2023/05/19 04:25:08;;;;;;;62.17;54.33;;;12.80;86.90;;;;;;4952800;28;90939;-55
2023/05/19 04:27:38;;;;;;;60.70;53.83;;;12.80;85.80;;;;;;4952688;28;90668;-56
2023/05/19 04:30:07;;;;;;;64.32;53.80;;;12.80;86.30;;;;;;4957947;28;90050;-55
2023/05/19 04:32:33;;;;;;;62.80;53.63;;;12.80;85.60;;;;;;4948867;28;89577;-60
2023/05/19 04:34:59;;;;;;;61.17;53.53;;;12.80;84.40;;;;;;4953935;28;90482;-60
2023/05/19 04:37:25;;;;;;;61.88;54.00;;;12.80;86.00;;;;;;4955210;28;94483;-59
2023/05/19 04:39:51;;;;;;;63.53;54.15;;;12.80;86.20;;;;;;4966446;28;90438;-60
2023/05/19 04:42:18;;;;;;;63.13;54.28;;;12.80;86.20;;;;;;4966301;28;90309;-57
2023/05/19 04:44:50;;;;;;;61.03;54.03;;;12.80;84.70;;;;;;4966753;28;89629;-59
2023/05/19 04:47:16;;;;;;;61.58;53.40;;;12.80;85.20;;;;;;4960602;28;89958;-56
2023/05/19 04:49:42;;;;;;;60.70;53.88;;;12.70;84.60;;;;;;4961982;28;89892;-54
2023/05/19 04:52:10;;;;;;;61.20;54.17;;;12.80;85.90;;;;;;4962459;28;88986;-56
2023/05/19 04:54:37;;;;;;;60.97;53.58;;;12.70;84.70;;;;;;4968499;28;89386;-59
2023/05/19 04:57:03;;;;;;;63.00;53.63;;;12.80;86.10;;;;;;4966830;28;89740;-54
2023/05/19 04:59:28;;;;;;;59.65;52.95;;;12.80;84.70;;;;;;4960542;28;91088;-59
2023/05/19 05:01:55;;;;;;;62.33;54.35;;;12.80;84.70;;;;;;4964822;28;89436;-61
2023/05/19 05:04:21;;;;;;;59.85;53.35;;;12.80;84.70;;;;;;4969843;28;90661;-56
2023/05/19 05:07:07;;;;;;;62.28;54.05;;;12.80;84.60;;;;;;4964232;28;89405;-60
2023/05/19 05:09:33;;;;;;;61.08;53.70;;;12.80;84.70;;;;;;4958483;28;94776;-60
2023/05/19 05:12:09;;;;;;;61.28;54.58;;;12.80;83.70;;;;;;4963051;28;89374;-57
2023/05/19 05:14:35;;;;;;;63.47;53.67;;;12.80;84.00;;;;;;4958080;28;90460;-60
2023/05/19 05:17:01;;;;;;;60.60;53.88;;;12.90;83.00;;;;;;4959075;28;90890;-60
2023/05/19 05:19:27;;;;;;;61.55;53.90;;;12.80;83.80;;;;;;4961905;28;89789;-58
2023/05/19 05:21:53;;;;;;;60.47;53.83;;;12.90;83.40;;;;;;4955876;28;90564;-54
2023/05/19 05:24:19;;;;;;;61.20;54.15;;;12.90;84.60;;;;;;4958668;28;91909;-52
2023/05/19 05:26:45;;;;;;;60.53;53.92;;;13.00;83.70;;;;;;4959804;28;90298;-58
2023/05/19 05:29:11;;;;;;;61.35;53.17;;;13.00;82.50;;;;;;4956592;28;90910;-55
2023/05/19 05:31:36;;;;;;;61.13;53.50;;;13.00;83.40;;;;;;4963253;28;89621;-57
2023/05/19 05:34:02;;;;;;;58.72;52.25;;;13.00;82.20;;;;;;4958028;28;89493;-52
2023/05/19 05:36:29;;;;;;;60.03;52.65;;;13.00;83.80;;;;;;4956768;28;90030;-61
2023/05/19 05:38:55;;;;;;;58.28;51.80;;;13.00;83.00;;;;;;4959598;28;91117;-55
2023/05/19 05:41:20;;;;;;;58.60;52.20;;;13.10;83.70;;;;;;4957733;28;88861;-54
2023/05/19 05:43:46;;;;;;;58.05;51.75;;;13.10;83.10;;;;;;4956694;28;89464;-54
2023/05/19 05:46:12;;;;;;;59.17;52.67;;;13.20;82.60;;;;;;4950721;28;91462;-59
2023/05/19 05:48:38;;;;;;;59.42;52.42;;;13.20;81.60;;;;;;4966026;28;90287;-58
2023/05/19 05:51:04;;;;;;;57.92;51.55;;;13.30;82.80;;;;;;4963425;28;89552;-52
2023/05/19 05:53:35;;;;;;;57.97;51.58;;;13.30;82.00;;;;;;4963917;28;91243;-59
2023/05/19 05:56:01;;;;;;;59.47;52.47;;;13.30;81.80;;;;;;4967130;28;90329;-61
2023/05/19 05:58:27;;;;;;;60.30;52.60;;;13.30;81.50;;;;;;4968406;28;89526;-59
2023/05/19 06:00:56;;;;;;;61.58;51.45;;;13.40;81.60;;;;;;4966982;28;89655;-60
2023/05/19 06:03:23;;;;;;;58.35;51.95;;;13.40;82.30;;;;;;4947884;28;90087;-53
2023/05/19 06:05:48;;;;;;;59.22;51.45;;;13.50;82.70;;;;;;4960057;28;89841;-58
2023/05/19 06:08:16;;;;;;;56.88;50.67;;;13.50;80.80;;;;;;4955607;28;94295;-59
2023/05/19 06:10:42;;;;;;;59.13;51.80;;;13.50;81.90;;;;;;4963434;28;90376;-58
2023/05/19 06:13:07;;;;;;;57.67;51.13;;;13.60;80.80;;;;;;4967863;28;90730;-57
2023/05/19 06:15:33;;;;;;;58.30;50.63;;;13.60;80.70;;;;;;4957368;28;89614;-57
2023/05/19 06:17:59;;;;;;;59.72;51.95;;;13.60;82.00;;;;;;4965190;28;90941;-60
2023/05/19 06:20:25;;;;;;;61.15;51.00;;;13.70;81.50;;;;;;4963536;28;89470;-57
2023/05/19 06:22:50;;;;;;;58.72;51.80;;;13.70;81.50;;;;;;4961974;28;92620;-55
2023/05/19 06:25:16;;;;;;;58.47;50.75;;;13.80;82.00;;;;;;4966556;28;90992;-58
2023/05/19 06:27:42;;;;;;;57.28;50.90;;;13.80;81.10;;;;;;4964664;28;89608;-53
2023/05/19 06:30:08;;;;;;;56.00;49.50;;;13.90;81.70;;;;;;4957909;28;93650;-60
2023/05/19 06:32:34;;;;;;;56.70;50.50;;;13.90;83.00;;;;;;4955144;28;91160;-57
2023/05/19 06:34:59;;;;;;;59.00;51.17;;;14.00;82.10;;;;;;4957055;28;89498;-61
2023/05/19 06:37:25;;;;;;;57.65;51.05;;;14.00;81.30;;;;;;4958290;28;90844;-55
2023/05/19 06:39:54;;;;;;;57.08;50.80;;;14.00;80.00;;;;;;4956717;28;90025;-51
2023/05/19 06:42:21;;;;;;;57.65;50.47;;;14.00;80.80;;;;;;4958873;28;90015;-54
2023/05/19 06:44:51;;;;;;;55.65;49.55;;;14.10;81.60;;;;;;4950026;28;89476;-58
2023/05/19 06:47:17;;;;;;;57.60;49.42;;;14.10;80.90;;;;;;4958426;28;95093;-59
2023/05/19 06:49:53;;;;;;;55.35;49.35;;;14.10;80.60;;;;;;4962656;28;89480;-53
2023/05/19 06:52:22;;;;;;;55.13;49.13;;;14.10;80.40;;;;;;4958238;28;91668;-59
2023/05/19 06:54:48;;;;;;;57.05;49.78;;;14.10;80.20;;;;;;4959475;28;89083;-57
2023/05/19 06:57:14;;;;;;;54.80;48.83;;;14.20;81.00;;;;;;4963179;28;91725;-57
2023/05/19 06:59:42;;;;;;;54.95;49.03;;;14.20;80.50;;;;;;4966767;28;89517;-59
2023/05/19 07:02:08;;;;;;;55.40;48.00;;;14.30;80.10;;;;;;4962584;28;91135;-58
2023/05/19 07:04:34;;;;;;;56.20;49.30;;;14.30;82.30;;;;;;4959871;28;89825;-54
2023/05/19 07:07:00;;;;;;;55.10;48.80;;;14.30;81.40;;;;;;4951493;28;90502;-56
2023/05/19 07:09:25;;;;;;;54.88;48.92;;;14.30;81.20;;;;;;4948716;28;90791;-47
2023/05/19 07:11:51;;;;;;;57.92;49.00;;;14.30;81.10;;;;;;4957922;28;90069;-49
2023/05/19 07:14:17;;;;;;;58.25;49.28;;;14.40;83.50;;;;;;4956510;28;90945;-42
2023/05/19 07:16:42;;;;;;;58.08;50.00;;;14.50;83.50;;;;;;4948499;28;91207;-43
2023/05/19 07:19:08;;;;;;;59.97;49.35;;;14.50;84.00;;;;;;4948419;28;89622;-43
2023/05/19 07:21:34;;;;;;;61.97;50.08;;;14.60;84.50;;;;;;4953737;28;94316;-44
2023/05/19 07:24:00;;;;;;;67.25;50.92;;;14.60;85.80;;;;;;4952744;28;90419;-41
2023/05/19 07:26:26;;;;;;;58.95;50.80;;;14.60;87.20;;;;;;4950058;28;90535;-45
2023/05/19 07:28:52;;;;;;;57.80;50.90;;;14.60;84.90;;;;;;4951925;28;92052;-43
2023/05/19 07:31:18;;;;;;;62.20;51.05;;;14.60;83.00;;;;;;4945227;28;91741;-42
2023/05/19 07:33:43;;;;;;;61.90;51.30;;;14.50;83.70;;;;;;4952028;28;91673;-43
2023/05/19 07:36:09;;;;;;;61.90;51.45;;;14.60;82.70;;;;;;4956019;28;90100;-44
2023/05/19 07:38:35;;;;;;;58.83;50.72;;;14.60;84.40;;;;;;4952403;28;93229;-46
2023/05/19 07:41:02;;;;;;;61.80;50.67;;;14.60;82.20;;;;;;4974218;28;90833;-44
2023/05/19 07:43:27;;;;;;;62.55;50.42;;;14.60;85.00;;;;;;4967634;28;89032;-44
2023/05/19 07:45:55;;;;;;;58.90;50.97;;;14.70;84.00;;;;;;4961423;28;89908;-43
2023/05/19 07:48:21;;;;;;;59.53;51.17;;;14.70;82.30;;;;;;4962670;28;89465;-43
2023/05/19 07:50:51;;;;;;;57.67;50.75;;;14.70;81.20;;;;;;4950831;28;91285;-44
2023/05/19 07:53:21;;;;;;;62.38;51.60;;;14.70;82.10;;;;;;4945637;28;90522;-44
2023/05/19 07:55:47;;;;;;;59.17;50.20;;;14.70;82.70;;;;;;4952520;28;90858;-45
2023/05/19 07:58:14;;;;;;;61.20;50.72;;;14.80;83.40;;;;;;4953987;28;89915;-45
2023/05/19 08:00:41;;;;;;;75.93;53.58;;;14.80;83.00;;;;;;4948789;28;90313;-44
2023/05/19 08:03:08;;;;;;;68.30;52.30;;;14.80;83.30;;;;;;4945571;28;91647;-46
2023/05/19 08:05:35;;;;;;;72.80;52.75;;;14.90;83.20;;;;;;4955134;28;90597;-46
2023/05/19 08:08:01;;;;;;;63.10;51.05;;;14.90;82.50;;;;;;4953695;28;88946;-44
2023/05/19 08:10:27;;;;;;;72.18;51.80;;;14.90;83.40;;;;;;4953694;28;90462;-44
2023/05/19 08:12:53;;;;;;;66.30;51.53;;;15.00;82.90;;;;;;4957517;28;89699;-44
2023/05/19 08:15:19;;;;;;;73.35;52.53;;;15.00;83.70;;;;;;4961121;28;91002;-45
2023/05/19 08:17:45;;;;;;;66.32;51.58;;;15.10;82.90;;;;;;4954924;28;90272;-49
2023/05/19 08:20:11;;;;;;;66.00;51.53;;;15.20;82.70;;;;;;4960690;28;90104;-54
2023/05/19 08:22:37;;;;;;;65.90;52.05;;;15.20;83.70;;;;;;4954481;28;90429;-52
2023/05/19 08:25:04;;;;;;;67.50;51.85;;;15.30;82.60;;;;;;4942808;28;91150;-55
2023/05/19 08:27:30;;;;;;;66.50;52.25;;;15.20;80.40;;;;;;4956194;28;91571;-56
2023/05/19 08:29:56;;;;;;;64.70;52.28;;;15.30;79.90;;;;;;4948462;28;91076;-51
2023/05/19 08:32:22;;;;;;;70.10;52.33;;;15.40;79.50;;;;;;4955250;28;89213;-61
2023/05/19 08:34:47;;;;;;;66.30;50.97;;;15.40;79.40;;;;;;4953749;28;91205;-61
2023/05/19 08:37:13;;;;;;;65.97;52.97;;;15.40;80.50;;;;;;4950998;28;91477;-54
2023/05/19 08:39:39;;;;;;;69.75;52.20;;;15.40;80.00;;;;;;4950637;28;91407;-60
2023/05/19 08:42:06;;;;;;;67.13;52.50;;;15.50;79.30;;;;;;4962127;28;90763;-61
2023/05/19 08:44:32;;;;;;;67.22;52.25;;;15.50;80.00;;;;;;4965760;28;89766;-59
2023/05/19 08:47:11;;;;;;;70.28;52.15;;;15.60;80.50;;;;;;4949492;28;94863;-61
2023/05/19 08:49:44;;;;;;;66.13;52.20;;;15.60;80.80;;;;;;4947962;28;90407;-56
2023/05/19 08:52:18;;;;;;;71.38;52.67;;;15.70;81.50;;;;;;4947315;28;89510;-56
2023/05/19 08:54:59;;;;;;;68.53;52.08;;;15.70;80.70;;;;;;4947197;28;91448;-54
2023/05/19 08:57:26;;;;;;;65.90;51.60;;;15.70;80.40;;;;;;4958683;28;89279;-58
2023/05/19 08:59:54;;;;;;;65.60;52.28;;;15.80;80.60;;;;;;4961091;28;90087;-55
2023/05/19 09:02:21;;;;;;;70.78;52.90;;;15.80;81.20;;;;;;4961136;28;89684;-57
2023/05/19 09:04:47;;;;;;;70.75;52.90;;;15.90;81.00;;;;;;4956255;28;91724;-54
2023/05/19 09:07:14;;;;;;;65.65;51.55;;;15.90;80.70;;;;;;4958791;28;90330;-49
2023/05/19 09:09:42;;;;;;;70.55;52.72;;;15.90;80.10;;;;;;4962544;28;89458;-54
2023/05/19 09:12:10;;;;;;;66.72;51.72;;;16.00;80.40;;;;;;4967530;28;89479;-56
2023/05/19 09:14:36;;;;;;;67.57;51.85;;;16.00;80.00;;;;;;4966274;28;89498;-55
2023/05/19 09:17:02;;;;;;;66.63;52.30;;;16.00;79.30;;;;;;4964089;28;89652;-59
2023/05/19 09:19:28;;;;;;;72.90;52.05;;;16.00;79.30;;;;;;4964566;28;90248;-55
2023/05/19 09:21:59;;;;;;;66.43;52.05;;;16.00;79.10;;;;;;4970819;28;89698;-56
2023/05/19 09:24:25;;;;;;;66.07;51.53;;;16.10;78.90;;;;;;4969132;28;89386;-51
2023/05/19 09:26:55;;;;;;;67.32;52.17;;;16.10;79.20;;;;;;4968576;28;89406;-56
2023/05/19 09:29:21;;;;;;;63.83;51.28;;;16.10;79.00;;;;;;4965354;28;91467;-55
2023/05/19 09:31:51;;;;;;;70.65;52.63;;;16.10;78.10;;;;;;4965153;28;90650;-58
2023/05/19 09:34:18;;;;;;;59.92;50.95;;;16.20;78.20;;;;;;4963927;28;90322;-58
2023/05/19 09:36:45;;;;;;;64.65;51.63;;;16.20;78.00;;;;;;4970055;28;89918;-55
2023/05/19 09:39:14;;;;;;;67.25;51.55;;;16.20;78.30;;;;;;4960143;28;90071;-54
2023/05/19 09:41:40;;;;;;;64.95;51.63;;;16.20;78.00;;;;;;4963599;28;90039;-56
2023/05/19 09:44:06;;;;;;;63.45;51.88;;;16.20;77.50;;;;;;4959635;28;95757;-55
2023/05/19 09:46:34;;;;;;;67.60;51.55;;;16.30;77.60;;;;;;4970207;28;90627;-56
2023/05/19 09:49:09;;;;;;;62.63;51.33;;;16.30;77.10;;;;;;4962394;28;89939;-55
2023/05/19 09:51:40;;;;;;;72.63;51.80;;;16.30;77.20;;;;;;4960360;28;91858;-56
2023/05/19 09:54:08;;;;;;;63.75;51.33;;;16.40;77.00;;;;;;4955581;28;91205;-58
2023/05/19 09:56:35;;;;;;;64.97;51.05;;;16.40;76.90;;;;;;4958407;28;90197;-59
2023/05/19 09:59:02;;;;;;;64.95;51.90;;;16.40;76.20;;;;;;4963121;28;90373;-59
2023/05/19 10:01:32;;;;;;;65.00;51.35;;;16.50;76.70;;;;;;4966847;28;91021;-57
2023/05/19 10:03:58;;;;;;;66.93;51.65;;;16.50;77.10;;;;;;4969946;28;89440;-58
2023/05/19 10:06:25;;;;;;;61.70;50.83;;;16.50;76.30;;;;;;4971595;28;90155;-59
2023/05/19 10:08:51;;;;;;;64.03;51.45;;;16.50;75.30;;;;;;4964276;28;89919;-55
2023/05/19 10:11:17;;;;;;;63.22;50.95;;;16.50;75.90;;;;;;4966576;28;89411;-59
2023/05/19 10:13:45;;;;;;;62.03;51.45;;;16.60;75.60;;;;;;4967963;28;90093;-58
2023/05/19 10:16:15;;;;;;;62.75;50.95;;;16.60;75.40;;;;;;4962712;28;89967;-57
2023/05/19 10:18:41;;;;;;;65.30;50.63;;;16.60;75.10;;;;;;4964098;28;91112;-59
2023/05/19 10:21:08;;;;;;;61.65;50.55;;;16.60;74.90;;;;;;4964272;28;90205;-60
2023/05/19 10:23:33;;;;;;;61.83;50.88;;;16.80;75.00;;;;;;4954643;28;89805;-54
2023/05/19 10:26:03;;;;;;;62.17;50.67;;;16.80;75.20;;;;;;4956550;28;89672;-59
2023/05/19 10:28:35;;;;;;;59.72;50.80;;;16.80;75.20;;;;;;4958598;28;90759;-56
2023/05/19 10:31:04;;;;;;;62.25;50.75;;;16.80;75.70;;;;;;4955871;28;89670;-60
2023/05/19 10:33:58;;;;;;;66.43;50.78;;;16.90;76.00;;;;;;4948779;28;90352;-56
2023/05/19 10:36:58;;;;;;;61.92;50.40;;;16.90;75.10;;;;;;4952607;28;88921;-57
2023/05/19 10:39:36;;;;;;;64.32;50.83;;;17.00;73.90;;;;;;4957903;28;90150;-53
2023/05/19 10:42:43;;;;;;;61.45;51.17;;;17.00;73.30;;;;;;4952057;28;90013;-53
2023/05/19 10:45:21;;;;;;;61.63;50.35;;;17.10;72.60;;;;;;4911886;28;96250;-56
2023/05/19 10:47:49;;;;;;;62.40;51.10;;;17.10;71.90;;;;;;4948686;28;95116;-51
2023/05/19 10:50:16;;;;;;;60.90;50.22;;;17.10;71.50;;;;;;4941917;28;91161;-59
2023/05/19 10:52:43;;;;;;;61.55;50.83;;;17.20;73.30;;;;;;4953298;28;91365;-57
2023/05/19 10:55:14;;;;;;;64.60;51.40;;;17.20;72.50;;;;;;4955590;28;89454;-59
2023/05/19 10:57:53;;;;;;;63.53;50.72;;;17.20;72.10;;;;;;4942574;28;90374;-58
2023/05/19 11:00:30;;;;;;;66.50;51.30;;;17.20;72.10;;;;;;4935060;28;90811;-54
2023/05/19 11:03:13;;;;;;;63.70;50.22;;;17.30;73.70;;;;;;4950149;28;93148;-57
2023/05/19 11:05:39;;;;;;;61.30;50.72;;;17.40;72.80;;;;;;4947058;28;91079;-51
2023/05/19 11:08:10;;;;;;;64.03;51.08;;;17.40;72.60;;;;;;4931615;28;90890;-56
2023/05/19 11:10:37;;;;;;;63.97;50.78;;;17.40;71.50;;;;;;4940194;28;92744;-59
2023/05/19 11:13:04;;;;;;;84.10;51.50;;;17.50;70.10;;;;;;4946072;28;90228;-56
2023/05/19 11:15:37;;;;;;;65.00;51.10;;;17.60;70.00;;;;;;4938083;28;90825;-56
2023/05/19 11:18:03;;;;;;;64.68;51.67;;;17.60;68.30;;;;;;4953116;28;90353;-51
2023/05/19 11:20:33;;;;;;;67.60;51.05;;;17.70;68.00;;;;;;4958382;28;91072;-56
2023/05/19 11:23:07;;;;;;;62.63;50.63;;;17.80;67.80;;;;;;4953514;28;90388;-54
2023/05/19 11:25:50;;;;;;;62.20;50.67;;;17.80;68.20;;;;;;4948676;28;94826;-59
2023/05/19 11:28:26;;;;;;;60.00;50.03;;;17.80;68.70;;;;;;4958625;28;88941;-55
2023/05/19 11:30:56;;;;;;;62.28;50.50;;;17.80;68.80;;;;;;4955552;28;94368;-57
2023/05/19 11:33:25;;;;;;;63.03;50.35;;;17.90;69.40;;;;;;4957513;28;90944;-59
2023/05/19 11:35:53;;;;;;;60.58;50.60;;;17.90;69.60;;;;;;4951151;28;92080;-57
2023/05/19 11:38:19;;;;;;;62.67;50.42;;;18.00;69.70;;;;;;4957360;28;90057;-52
2023/05/19 11:40:47;;;;;;;63.40;50.30;;;18.00;69.00;;;;;;4941292;28;91295;-57
2023/05/19 11:43:12;;;;;;;60.03;50.40;;;18.00;69.30;;;;;;4959418;28;93197;-55
2023/05/19 11:45:38;;;;;;;59.35;50.10;;;18.10;69.30;;;;;;4964101;28;93986;-53
2023/05/19 11:48:04;;;;;;;59.67;50.22;;;18.10;69.90;;;;;;4949894;28;90254;-54
2023/05/19 11:50:31;;;;;;;63.88;50.63;;;18.20;69.40;;;;;;4964575;28;91807;-63
2023/05/19 11:52:59;;;;;;;62.83;50.47;;;18.20;69.90;;;;;;4954472;28;88916;-59
2023/05/19 11:55:25;;;;;;;63.47;50.03;;;18.10;70.80;;;;;;4966619;28;90492;-54
2023/05/19 11:57:56;;;;;;;61.88;50.83;;;18.20;71.70;;;;;;4958680;28;89968;-55
2023/05/19 12:00:22;;;;;;;62.03;50.17;;;18.20;71.80;;;;;;4952458;28;90757;-56
2023/05/19 12:02:47;;;;;;;66.82;50.83;;;18.20;71.80;;;;;;4953280;28;94528;-60
2023/05/19 12:05:24;;;;;;;59.72;50.05;;;18.20;72.30;;;;;;4965563;28;96305;-55
2023/05/19 12:07:51;;;;;;;62.28;50.83;;;18.20;71.90;;;;;;4956152;28;89571;-57
2023/05/19 12:10:25;;;;;;;65.15;50.70;;;18.30;72.70;;;;;;4964308;28;91273;-56
2023/05/19 12:12:52;;;;;;;66.57;50.83;;;18.30;73.00;;;;;;4955175;28;89571;-59
2023/05/19 12:15:19;;;;;;;65.47;50.60;;;18.30;72.70;;;;;;4965729;28;89844;-58
2023/05/19 12:17:55;;;;;;;66.05;51.33;;;18.40;72.10;;;;;;4953281;28;89655;-55
2023/05/19 12:20:22;;;;;;;62.67;50.72;;;18.40;72.80;;;;;;4949797;28;91123;-60
2023/05/19 12:22:49;;;;;;;60.35;49.92;;;18.50;72.70;;;;;;4966155;28;90421;-60
2023/05/19 12:25:15;;;;;;;60.55;50.50;;;18.40;72.00;;;;;;4955055;28;91192;-57
2023/05/19 12:27:42;;;;;;;63.13;50.67;;;18.50;72.10;;;;;;4968805;28;89937;-58
2023/05/19 12:30:08;;;;;;;60.78;50.53;;;18.50;72.40;;;;;;4953614;28;91469;-59
2023/05/19 12:32:37;;;;;;;62.45;50.92;;;18.50;71.70;;;;;;4961277;28;90145;-60
2023/05/19 12:35:04;;;;;;;64.10;51.13;;;18.50;71.70;;;;;;4950607;28;89869;-59